Time;durP1;ratioP1;P1;durP2;ratioP2;P2;SDS_P1;SDS_P2;PMS_P1;PMS_P2;Temp;Humidity;BMP_temperature;BMP_pressure;BME280_temperature;BME280_humidity;BME280_pressure;Samples;Min_cycle;Max_cycle;Signal;HPM_P1;HPM_P2
2023/03/30 00:01:10;;;;;;;7.32;3.20;;;;;;;;;;4991565;28;20033;-78
2023/03/30 00:03:37;;;;;;;4.85;2.85;;;;;;;;;;5006430;28;20034;-78
2023/03/30 00:06:04;;;;;;;5.95;2.47;;;;;;;;;;5010201;28;20386;-78
2023/03/30 00:08:29;;;;;;;8.57;2.75;;;;;;;;;;4993438;28;20417;-78
2023/03/30 00:11:07;;;;;;;10.57;2.50;;;;;;;;;;5011168;28;20031;-78
2023/03/30 00:13:34;;;;;;;4.15;2.28;;;;;;;;;;4990759;28;20065;-78
2023/03/30 00:16:00;;;;;;;4.43;2.58;;;;;;;;;;5005443;28;20120;-77
2023/03/30 00:18:25;;;;;;;4.88;2.30;;;;;;;;;;4995239;28;20057;-77
2023/03/30 00:20:52;;;;;;;4.00;2.40;;;;;;;;;;5012456;28;20038;-77
2023/03/30 00:23:18;;;;;;;5.28;2.38;;;;;;;;;;5008109;28;20018;-77
2023/03/30 00:25:44;;;;;;;5.40;2.60;;;;;;;;;;4991853;28;20165;-77
2023/03/30 00:28:10;;;;;;;4.78;2.40;;;;;;;;;;5008195;28;20026;-77
2023/03/30 00:30:36;;;;;;;4.50;2.17;;;;;;;;;;5011620;28;20037;-78
2023/03/30 00:33:02;;;;;;;4.03;2.45;;;;;;;;;;4990247;28;20398;-78
2023/03/30 00:35:29;;;;;;;6.85;2.42;;;;;;;;;;5002589;28;20391;-77
2023/03/30 00:37:55;;;;;;;4.97;2.50;;;;;;;;;;5003413;28;20022;-77
2023/03/30 00:40:21;;;;;;;5.70;2.60;;;;;;;;;;5012658;28;20057;-77
2023/03/30 00:42:47;;;;;;;5.22;2.40;;;;;;;;;;5011377;28;20116;-77
2023/03/30 00:45:27;;;;;;;6.43;2.70;;;;;;;;;;4994614;28;20359;-78
2023/03/30 00:48:00;;;;;;;4.15;2.30;;;;;;;;;;5009727;28;20486;-77
2023/03/30 00:50:33;;;;;;;4.72;2.30;;;;;;;;;;5012505;28;20029;-77
2023/03/30 00:53:02;;;;;;;5.22;2.55;;;;;;;;;;5011895;28;20436;-77
2023/03/30 00:55:30;;;;;;;6.05;2.20;;;;;;;;;;5013620;28;20485;-77
2023/03/30 00:57:56;;;;;;;6.07;2.33;;;;;;;;;;5012923;28;20029;-77
2023/03/30 01:00:22;;;;;;;6.60;2.17;;;;;;;;;;4994184;28;20030;-77
2023/03/30 01:02:55;;;;;;;6.72;1.98;;;;;;;;;;5008083;28;20101;-77
2023/03/30 01:05:23;;;;;;;4.53;2.20;;;;;;;;;;5013119;28;20032;-77
2023/03/30 01:07:51;;;;;;;7.28;2.28;;;;;;;;;;5008798;28;20028;-77
2023/03/30 01:10:17;;;;;;;4.78;2.05;;;;;;;;;;4990712;28;20037;-77
2023/03/30 01:12:43;;;;;;;4.43;2.20;;;;;;;;;;5012097;28;20394;-77
2023/03/30 01:15:09;;;;;;;3.88;1.88;;;;;;;;;;5014821;28;20508;-77
2023/03/30 01:18:03;;;;;;;4.28;1.80;;;;;;;;;;5014141;28;20437;-77
2023/03/30 01:21:12;;;;;;;3.40;1.80;;;;;;;;;;5010437;28;20129;-77
2023/03/30 01:24:05;;;;;;;5.53;2.13;;;;;;;;;;5009802;28;20148;-77
2023/03/30 01:26:56;;;;;;;5.32;2.25;;;;;;;;;;5006243;28;20482;-77
2023/03/30 01:29:37;;;;;;;5.82;2.50;;;;;;;;;;4985946;28;20627;-77
2023/03/30 01:32:27;;;;;;;4.88;2.35;;;;;;;;;;4987142;28;20041;-77
2023/03/30 01:35:22;;;;;;;5.45;2.08;;;;;;;;;;4987817;28;20025;-76
2023/03/30 01:37:50;;;;;;;6.63;2.25;;;;;;;;;;5006583;28;20053;-77
2023/03/30 01:40:19;;;;;;;5.70;2.10;;;;;;;;;;4988296;28;20022;-78
2023/03/30 01:43:00;;;;;;;5.28;2.10;;;;;;;;;;5004198;28;20026;-77
2023/03/30 01:45:46;;;;;;;3.95;1.80;;;;;;;;;;4992901;28;20034;-77
2023/03/30 01:48:22;;;;;;;3.60;1.90;;;;;;;;;;4987261;28;20502;-77
2023/03/30 01:50:52;;;;;;;6.88;2.08;;;;;;;;;;4992933;28;20026;-77
2023/03/30 01:53:34;;;;;;;5.50;2.10;;;;;;;;;;4989130;28;20030;-77
2023/03/30 01:56:10;;;;;;;6.18;2.08;;;;;;;;;;5006352;28;20034;-78
2023/03/30 01:58:42;;;;;;;2.60;1.38;;;;;;;;;;4991872;28;20685;-77
2023/03/30 02:01:10;;;;;;;3.15;1.52;;;;;;;;;;5008746;28;20080;-77
2023/03/30 02:03:38;;;;;;;3.05;1.40;;;;;;;;;;4990445;28;20029;-77
2023/03/30 02:06:19;;;;;;;3.13;1.20;;;;;;;;;;5002950;28;20363;-77
2023/03/30 02:08:48;;;;;;;4.57;1.45;;;;;;;;;;5008229;28;20359;-77
2023/03/30 02:11:14;;;;;;;3.25;1.13;;;;;;;;;;4995685;28;20022;-77
2023/03/30 02:13:42;;;;;;;4.15;1.20;;;;;;;;;;4993547;28;20080;-78
2023/03/30 02:16:22;;;;;;;2.45;1.10;;;;;;;;;;5010322;28;20105;-77
2023/03/30 02:18:47;;;;;;;5.43;1.50;;;;;;;;;;5006836;28;20026;-77
2023/03/30 02:21:13;;;;;;;3.25;1.30;;;;;;;;;;5008516;28;20038;-77
2023/03/30 02:23:44;;;;;;;2.85;1.10;;;;;;;;;;4994650;28;20029;-77
2023/03/30 02:26:10;;;;;;;2.03;1.10;;;;;;;;;;5010243;28;20134;-78
2023/03/30 02:28:36;;;;;;;4.20;1.20;;;;;;;;;;5006072;28;20061;-77
2023/03/30 02:31:03;;;;;;;3.92;1.20;;;;;;;;;;4997071;28;20060;-77
2023/03/30 02:33:45;;;;;;;3.00;1.20;;;;;;;;;;5001045;28;20561;-78
2023/03/30 02:36:33;;;;;;;3.95;1.50;;;;;;;;;;5017124;28;20026;-77
2023/03/30 02:39:09;;;;;;;3.63;1.50;;;;;;;;;;5004478;28;20026;-79
2023/03/30 02:41:34;;;;;;;4.45;1.45;;;;;;;;;;5005938;28;20022;-77
2023/03/30 02:44:38;;;;;;;7.70;1.45;;;;;;;;;;5010237;28;20105;-77
2023/03/30 02:47:33;;;;;;;2.35;1.40;;;;;;;;;;5011733;28;20029;-77
2023/03/30 02:50:05;;;;;;;3.42;1.33;;;;;;;;;;4994756;28;20041;-77
2023/03/30 02:52:46;;;;;;;3.95;1.40;;;;;;;;;;5025571;28;20026;-77
2023/03/30 02:55:21;;;;;;;6.13;1.20;;;;;;;;;;5019016;28;20029;-78
2023/03/30 02:58:15;;;;;;;3.28;1.30;;;;;;;;;;4997868;28;20453;-78
2023/03/30 03:00:52;;;;;;;5.97;1.67;;;;;;;;;;5013477;28;21758;-77
2023/03/30 03:03:27;;;;;;;3.47;1.13;;;;;;;;;;5013291;28;20041;-77
2023/03/30 03:05:54;;;;;;;5.45;1.50;;;;;;;;;;5013129;28;20041;-77
2023/03/30 03:08:23;;;;;;;2.22;1.00;;;;;;;;;;4997673;28;20030;-77
2023/03/30 03:10:50;;;;;;;5.47;1.55;;;;;;;;;;4993304;28;20026;-77
2023/03/30 03:13:17;;;;;;;4.05;1.10;;;;;;;;;;5012769;28;20030;-77
2023/03/30 03:15:44;;;;;;;2.45;1.33;;;;;;;;;;4998027;28;20022;-77
2023/03/30 03:18:13;;;;;;;1.63;0.90;;;;;;;;;;5002380;28;20030;-78
2023/03/30 03:20:38;;;;;;;5.93;1.15;;;;;;;;;;5013670;28;20037;-77
2023/03/30 03:23:04;;;;;;;3.88;1.20;;;;;;;;;;5014493;28;20108;-77
2023/03/30 03:25:30;;;;;;;4.18;0.93;;;;;;;;;;5016379;28;20029;-77
2023/03/30 03:27:55;;;;;;;2.80;1.23;;;;;;;;;;4994806;28;20080;-77
2023/03/30 03:30:22;;;;;;;3.03;0.93;;;;;;;;;;4985646;28;20081;-77
2023/03/30 03:32:48;;;;;;;2.97;1.15;;;;;;;;;;4992873;28;20113;-77
2023/03/30 03:35:14;;;;;;;4.68;1.10;;;;;;;;;;5011502;28;20030;-77
2023/03/30 03:37:39;;;;;;;3.05;1.00;;;;;;;;;;4996052;28;20032;-77
2023/03/30 03:40:06;;;;;;;4.03;0.90;;;;;;;;;;5009488;28;20973;-77
2023/03/30 03:42:32;;;;;;;4.07;1.27;;;;;;;;;;5011581;28;20025;-77
2023/03/30 03:44:58;;;;;;;7.65;1.23;;;;;;;;;;4995430;28;20029;-77
2023/03/30 03:47:23;;;;;;;3.17;1.10;;;;;;;;;;4992836;28;20176;-77
2023/03/30 03:49:48;;;;;;;4.28;1.02;;;;;;;;;;5008646;28;20030;-77
2023/03/30 03:52:14;;;;;;;3.92;1.17;;;;;;;;;;4994933;28;20402;-77
2023/03/30 03:54:39;;;;;;;2.92;1.10;;;;;;;;;;5007074;28;20502;-77
2023/03/30 03:57:05;;;;;;;7.15;1.00;;;;;;;;;;4992303;28;20493;-77
2023/03/30 03:59:31;;;;;;;2.58;1.10;;;;;;;;;;5012698;28;20030;-77
2023/03/30 04:01:56;;;;;;;2.67;1.10;;;;;;;;;;5006204;28;20498;-77
2023/03/30 04:04:22;;;;;;;4.70;1.40;;;;;;;;;;5004237;28;20037;-78
2023/03/30 04:06:47;;;;;;;3.40;1.13;;;;;;;;;;5014808;28;20415;-77
2023/03/30 04:09:12;;;;;;;3.20;1.13;;;;;;;;;;4990660;28;20076;-78
2023/03/30 04:11:38;;;;;;;6.13;1.60;;;;;;;;;;5013054;28;20109;-77
2023/03/30 04:14:03;;;;;;;3.40;1.02;;;;;;;;;;4993575;28;20029;-77
2023/03/30 04:16:28;;;;;;;3.83;1.40;;;;;;;;;;5010401;28;20030;-77
2023/03/30 04:18:56;;;;;;;4.03;1.40;;;;;;;;;;5011164;28;20116;-78
2023/03/30 04:21:22;;;;;;;2.95;1.40;;;;;;;;;;4995308;28;20037;-77
2023/03/30 04:23:48;;;;;;;4.60;1.35;;;;;;;;;;4993940;28;20057;-77
2023/03/30 04:26:14;;;;;;;3.67;1.40;;;;;;;;;;5010167;28;20060;-77
2023/03/30 04:28:40;;;;;;;4.50;1.30;;;;;;;;;;4988413;28;20018;-77
2023/03/30 04:31:11;;;;;;;4.07;1.67;;;;;;;;;;5007460;28;20100;-77
2023/03/30 04:33:43;;;;;;;3.83;1.50;;;;;;;;;;4992796;28;20117;-77
2023/03/30 04:36:16;;;;;;;6.03;1.50;;;;;;;;;;5013026;28;20409;-78
2023/03/30 04:38:57;;;;;;;6.47;1.75;;;;;;;;;;5007109;28;20029;-77
2023/03/30 04:41:25;;;;;;;4.38;1.75;;;;;;;;;;5008522;28;20032;-78
2023/03/30 04:43:51;;;;;;;4.32;1.60;;;;;;;;;;5006290;28;20030;-78
2023/03/30 04:46:16;;;;;;;4.35;1.65;;;;;;;;;;5005923;28;20401;-77
2023/03/30 04:48:41;;;;;;;4.90;2.08;;;;;;;;;;5004885;28;20034;-77
2023/03/30 04:51:07;;;;;;;4.55;1.80;;;;;;;;;;5007625;28;20033;-77
2023/03/30 04:53:32;;;;;;;5.30;2.00;;;;;;;;;;4991949;28;20033;-77
2023/03/30 04:55:57;;;;;;;6.85;2.20;;;;;;;;;;5009329;28;20098;-77
2023/03/30 04:58:23;;;;;;;5.65;2.08;;;;;;;;;;5008311;28;20108;-77
2023/03/30 05:00:48;;;;;;;4.90;2.03;;;;;;;;;;4992735;28;20034;-78
2023/03/30 05:03:13;;;;;;;6.13;2.10;;;;;;;;;;4995587;28;20490;-77
2023/03/30 05:05:39;;;;;;;5.05;2.03;;;;;;;;;;5006020;28;20172;-77
2023/03/30 05:08:04;;;;;;;7.25;2.20;;;;;;;;;;5009121;28;20061;-77
2023/03/30 05:10:30;;;;;;;4.13;1.90;;;;;;;;;;5011220;28;20033;-77
2023/03/30 05:12:55;;;;;;;6.38;2.33;;;;;;;;;;4994175;28;20164;-77
2023/03/30 05:15:21;;;;;;;4.45;1.77;;;;;;;;;;5011104;28;20030;-77
2023/03/30 05:17:46;;;;;;;4.63;1.92;;;;;;;;;;5009573;28;20025;-77
2023/03/30 05:20:13;;;;;;;5.13;1.85;;;;;;;;;;5010322;28;20429;-77
2023/03/30 05:22:39;;;;;;;5.63;1.80;;;;;;;;;;5010635;28;20044;-77
2023/03/30 05:25:06;;;;;;;7.00;2.08;;;;;;;;;;5010710;28;20541;-77
2023/03/30 05:27:31;;;;;;;4.03;1.55;;;;;;;;;;5013912;28;20022;-77
2023/03/30 05:29:56;;;;;;;4.20;1.55;;;;;;;;;;4990439;28;20042;-77
2023/03/30 05:32:22;;;;;;;6.03;1.40;;;;;;;;;;5013791;28;20033;-78
2023/03/30 05:34:47;;;;;;;5.53;1.50;;;;;;;;;;5005560;28;20041;-77
2023/03/30 05:37:13;;;;;;;5.50;1.67;;;;;;;;;;5017011;28;20057;-77
2023/03/30 05:39:39;;;;;;;8.50;1.60;;;;;;;;;;5012184;28;20022;-77
2023/03/30 05:42:04;;;;;;;4.60;1.42;;;;;;;;;;5012923;28;20084;-77
2023/03/30 05:44:30;;;;;;;5.10;1.33;;;;;;;;;;5012969;28;20033;-78
2023/03/30 05:46:55;;;;;;;6.25;1.70;;;;;;;;;;5008062;28;20071;-77
2023/03/30 05:49:21;;;;;;;7.03;1.70;;;;;;;;;;5012060;28;20026;-77
2023/03/30 05:51:46;;;;;;;7.82;1.77;;;;;;;;;;4993633;28;20026;-77
2023/03/30 05:54:12;;;;;;;5.30;1.80;;;;;;;;;;5013494;28;20070;-77
2023/03/30 05:56:39;;;;;;;7.95;2.55;;;;;;;;;;5010156;28;20025;-77
2023/03/30 05:59:04;;;;;;;6.07;1.80;;;;;;;;;;4993583;28;20113;-77
2023/03/30 06:01:30;;;;;;;5.60;1.63;;;;;;;;;;4993400;28;20439;-78
2023/03/30 06:03:56;;;;;;;5.70;1.70;;;;;;;;;;4992407;28;20549;-77
2023/03/30 06:06:22;;;;;;;5.97;1.70;;;;;;;;;;4998364;28;20057;-77
2023/03/30 06:08:48;;;;;;;5.43;1.48;;;;;;;;;;4998414;28;20060;-77
2023/03/30 06:11:14;;;;;;;4.22;1.50;;;;;;;;;;4999724;28;20076;-77
2023/03/30 06:13:39;;;;;;;5.85;2.00;;;;;;;;;;4999790;28;20029;-77
2023/03/30 06:16:05;;;;;;;5.05;2.05;;;;;;;;;;5016508;28;20026;-77
2023/03/30 06:18:31;;;;;;;10.40;2.28;;;;;;;;;;4993788;28;20124;-77
2023/03/30 06:20:56;;;;;;;5.68;1.75;;;;;;;;;;4995483;28;20080;-78
2023/03/30 06:23:22;;;;;;;5.82;1.80;;;;;;;;;;4977813;28;20040;-77
2023/03/30 06:25:51;;;;;;;9.40;2.15;;;;;;;;;;4998755;28;20026;-77
2023/03/30 06:28:18;;;;;;;5.50;2.10;;;;;;;;;;4993916;28;20057;-77
2023/03/30 06:30:47;;;;;;;5.85;2.20;;;;;;;;;;5012115;28;20384;-77
2023/03/30 06:33:13;;;;;;;6.07;1.90;;;;;;;;;;5010993;28;20037;-78
2023/03/30 06:35:43;;;;;;;6.35;1.85;;;;;;;;;;5014206;28;20025;-77
2023/03/30 06:38:08;;;;;;;5.78;1.63;;;;;;;;;;4995183;28;20053;-77
2023/03/30 06:40:34;;;;;;;4.65;1.40;;;;;;;;;;4995595;28;20069;-81
2023/03/30 06:42:59;;;;;;;8.40;1.70;;;;;;;;;;4991243;28;20061;-79
2023/03/30 06:45:25;;;;;;;7.47;1.60;;;;;;;;;;5009453;28;20049;-80
2023/03/30 06:47:50;;;;;;;6.47;2.05;;;;;;;;;;4995586;28;20025;-81
2023/03/30 06:50:15;;;;;;;4.70;1.90;;;;;;;;;;4994716;28;20394;-81
2023/03/30 06:52:41;;;;;;;4.43;1.75;;;;;;;;;;4992532;28;20049;-81
2023/03/30 06:55:06;;;;;;;3.65;1.48;;;;;;;;;;5014355;28;20129;-80
2023/03/30 06:57:32;;;;;;;8.27;1.70;;;;;;;;;;4991875;28;20025;-81
2023/03/30 06:59:57;;;;;;;6.70;1.40;;;;;;;;;;4997865;28;20453;-80
2023/03/30 07:02:24;;;;;;;6.10;1.63;;;;;;;;;;4990748;28;20034;-81
2023/03/30 07:04:50;;;;;;;5.85;1.63;;;;;;;;;;5011722;28;20022;-81
2023/03/30 07:07:16;;;;;;;8.18;1.90;;;;;;;;;;4996358;28;20478;-82
2023/03/30 07:09:42;;;;;;;4.78;1.98;;;;;;;;;;4984333;28;20114;-81
2023/03/30 07:12:07;;;;;;;7.35;2.10;;;;;;;;;;4997554;28;20014;-81
2023/03/30 07:14:32;;;;;;;8.30;1.98;;;;;;;;;;5015378;28;20033;-81
2023/03/30 07:16:58;;;;;;;8.85;1.70;;;;;;;;;;5011938;28;20045;-81
2023/03/30 07:19:23;;;;;;;8.02;1.58;;;;;;;;;;5007313;28;20029;-81
2023/03/30 07:21:48;;;;;;;6.38;1.10;;;;;;;;;;5006718;28;20039;-79
2023/03/30 07:24:14;;;;;;;8.35;1.60;;;;;;;;;;4994535;28;20033;-81
2023/03/30 07:26:39;;;;;;;5.95;1.17;;;;;;;;;;5016063;28;20022;-81
2023/03/30 07:29:06;;;;;;;9.20;1.50;;;;;;;;;;5013240;28;20430;-81
2023/03/30 07:31:31;;;;;;;6.07;1.52;;;;;;;;;;5009462;28;20055;-81
2023/03/30 07:33:57;;;;;;;7.55;1.58;;;;;;;;;;4995299;28;20026;-80
2023/03/30 07:36:22;;;;;;;8.10;1.50;;;;;;;;;;5016849;28;20045;-79
2023/03/30 07:38:48;;;;;;;6.47;1.42;;;;;;;;;;4996161;28;20033;-81
2023/03/30 07:41:14;;;;;;;7.03;1.80;;;;;;;;;;5011193;28;20022;-81
2023/03/30 07:43:40;;;;;;;4.85;1.42;;;;;;;;;;4996100;28;20172;-81
2023/03/30 07:46:10;;;;;;;9.20;1.55;;;;;;;;;;5014403;28;20057;-81
2023/03/30 07:48:36;;;;;;;10.00;1.75;;;;;;;;;;5007723;28;20508;-81
2023/03/30 07:51:06;;;;;;;8.05;1.73;;;;;;;;;;4991327;28;20026;-81
2023/03/30 07:53:32;;;;;;;6.13;1.48;;;;;;;;;;5012103;28;20087;-81
2023/03/30 07:55:58;;;;;;;8.52;1.60;;;;;;;;;;5007273;28;20030;-80
2023/03/30 07:58:23;;;;;;;7.85;2.42;;;;;;;;;;5014542;28;20423;-81
2023/03/30 08:00:49;;;;;;;10.20;1.75;;;;;;;;;;5011716;28;20112;-79
2023/03/30 08:03:14;;;;;;;7.45;1.55;;;;;;;;;;4986302;28;20030;-81
2023/03/30 08:05:40;;;;;;;5.00;1.77;;;;;;;;;;5011860;28;20026;-81
2023/03/30 08:08:06;;;;;;;7.07;1.48;;;;;;;;;;4994449;28;20026;-82
2023/03/30 08:10:32;;;;;;;6.93;1.65;;;;;;;;;;4996277;28;20080;-82
2023/03/30 08:12:58;;;;;;;9.88;1.92;;;;;;;;;;5010444;28;20401;-81
2023/03/30 08:15:23;;;;;;;8.48;1.90;;;;;;;;;;5004172;28;20087;-80
2023/03/30 08:17:48;;;;;;;8.98;2.03;;;;;;;;;;5014768;28;20080;-82
2023/03/30 08:20:14;;;;;;;10.35;1.95;;;;;;;;;;4992813;28;20455;-81
2023/03/30 08:22:40;;;;;;;12.48;2.20;;;;;;;;;;4974660;28;20047;-80
2023/03/30 08:25:06;;;;;;;7.90;1.65;;;;;;;;;;4994974;28;20025;-81
2023/03/30 08:27:31;;;;;;;8.85;1.60;;;;;;;;;;4991978;28;20363;-80
2023/03/30 08:29:57;;;;;;;8.30;1.80;;;;;;;;;;4995319;28;20080;-81
2023/03/30 08:32:22;;;;;;;11.40;1.90;;;;;;;;;;4995498;28;20497;-82
2023/03/30 08:34:48;;;;;;;7.25;1.58;;;;;;;;;;5016441;28;20477;-81
2023/03/30 08:37:13;;;;;;;7.75;1.73;;;;;;;;;;4994712;28;20022;-81
2023/03/30 08:39:38;;;;;;;8.85;1.67;;;;;;;;;;4991393;28;20022;-81
2023/03/30 08:42:32;;;;;;;8.52;1.70;;;;;;;;;;5002134;28;20023;-80
2023/03/30 08:45:04;;;;;;;8.07;1.90;;;;;;;;;;5006138;28;20161;-80
2023/03/30 08:47:35;;;;;;;10.98;2.00;;;;;;;;;;4986855;28;20124;-81
2023/03/30 08:50:08;;;;;;;8.88;2.30;;;;;;;;;;4994897;28;20092;-82
2023/03/30 08:52:35;;;;;;;8.20;1.63;;;;;;;;;;4991685;28;20480;-79
2023/03/30 08:55:02;;;;;;;9.32;1.88;;;;;;;;;;5009453;28;20030;-81
2023/03/30 08:58:13;;;;;;;8.23;1.63;;;;;;;;;;4995496;28;20033;-81
2023/03/30 09:00:52;;;;;;;7.20;1.52;;;;;;;;;;4907314;29;20039;-81
2023/03/30 09:03:28;;;;;;;8.40;1.77;;;;;;;;;;4911784;29;20027;-84
2023/03/30 09:06:28;;;;;;;9.05;1.65;;;;;;;;;;4949551;28;20449;-77
2023/03/30 09:08:53;;;;;;;7.15;1.60;;;;;;;;;;4997815;28;20034;-76
2023/03/30 09:11:32;;;;;;;10.98;1.83;;;;;;;;;;5019702;28;20033;-76
2023/03/30 09:14:01;;;;;;;8.10;1.60;;;;;;;;;;5011993;28;20025;-76
2023/03/30 09:16:41;;;;;;;6.95;1.58;;;;;;;;;;5016257;28;20026;-76
2023/03/30 09:19:13;;;;;;;10.50;1.88;;;;;;;;;;4995353;28;20530;-76
2023/03/30 09:21:39;;;;;;;8.88;1.48;;;;;;;;;;5011374;28;20026;-75
2023/03/30 09:24:13;;;;;;;9.07;1.65;;;;;;;;;;5014492;28;20122;-76
2023/03/30 09:27:07;;;;;;;8.77;2.00;;;;;;;;;;5012918;28;20071;-75
2023/03/30 09:29:57;;;;;;;11.57;2.13;;;;;;;;;;5006068;28;20124;-76
2023/03/30 09:32:39;;;;;;;10.18;1.90;;;;;;;;;;5016074;28;20056;-75
2023/03/30 09:35:15;;;;;;;12.07;2.40;;;;;;;;;;5011983;28;20148;-75
2023/03/30 09:37:40;;;;;;;12.10;2.40;;;;;;;;;;5000476;28;20034;-76
2023/03/30 09:40:20;;;;;;;13.45;2.58;;;;;;;;;;5001298;28;20149;-75
2023/03/30 09:43:05;;;;;;;12.38;2.55;;;;;;;;;;5022032;28;20030;-75
2023/03/30 09:45:33;;;;;;;12.45;2.63;;;;;;;;;;5016274;28;20029;-76
2023/03/30 09:48:07;;;;;;;9.55;2.40;;;;;;;;;;4999781;28;20057;-75
2023/03/30 09:50:38;;;;;;;11.68;2.45;;;;;;;;;;5001122;28;20029;-75
2023/03/30 09:53:24;;;;;;;10.18;2.17;;;;;;;;;;5014862;28;20029;-76
2023/03/30 09:56:16;;;;;;;9.13;2.70;;;;;;;;;;5013424;28;20022;-76
2023/03/30 09:58:41;;;;;;;13.07;2.15;;;;;;;;;;5014096;28;20033;-77
2023/03/30 10:01:11;;;;;;;12.25;2.13;;;;;;;;;;5014945;28;20025;-77
2023/03/30 10:03:37;;;;;;;10.65;2.40;;;;;;;;;;4998825;28;20026;-76
2023/03/30 10:06:14;;;;;;;10.13;1.92;;;;;;;;;;5017301;28;20041;-76
2023/03/30 10:08:55;;;;;;;7.72;1.85;;;;;;;;;;4999590;28;20034;-75
2023/03/30 10:11:44;;;;;;;11.68;2.08;;;;;;;;;;5014782;28;20042;-75
2023/03/30 10:14:30;;;;;;;15.48;2.25;;;;;;;;;;5012595;28;20100;-76
2023/03/30 10:16:58;;;;;;;13.27;2.28;;;;;;;;;;5016269;28;20469;-76
2023/03/30 10:19:24;;;;;;;10.90;2.17;;;;;;;;;;5000998;28;20022;-76
2023/03/30 10:21:54;;;;;;;8.15;2.03;;;;;;;;;;5011901;28;20027;-75
2023/03/30 10:24:23;;;;;;;10.30;2.53;;;;;;;;;;4995926;28;20401;-75
2023/03/30 10:26:55;;;;;;;10.82;2.30;;;;;;;;;;5015564;28;20037;-76
2023/03/30 10:29:24;;;;;;;9.60;2.30;;;;;;;;;;5013036;28;20482;-76
2023/03/30 10:32:26;;;;;;;12.82;2.60;;;;;;;;;;4998213;28;20033;-75
2023/03/30 10:34:55;;;;;;;7.55;2.10;;;;;;;;;;4988315;28;20397;-76
2023/03/30 10:37:50;;;;;;;14.57;2.65;;;;;;;;;;5015481;28;20112;-76
2023/03/30 10:40:32;;;;;;;17.27;2.38;;;;;;;;;;4979563;28;20033;-75
2023/03/30 10:42:59;;;;;;;12.32;2.58;;;;;;;;;;5003707;28;20034;-76
2023/03/30 10:45:32;;;;;;;14.40;2.25;;;;;;;;;;5011534;28;20030;-79
2023/03/30 10:48:28;;;;;;;8.35;2.10;;;;;;;;;;5000159;28;20032;-78
2023/03/30 10:51:24;;;;;;;12.57;1.95;;;;;;;;;;5001545;28;20100;-75
2023/03/30 10:54:06;;;;;;;10.48;2.17;;;;;;;;;;5019931;28;20036;-75
2023/03/30 10:56:40;;;;;;;10.75;2.30;;;;;;;;;;5001195;28;20026;-76
2023/03/30 10:59:05;;;;;;;11.82;2.42;;;;;;;;;;5013850;28;20034;-77
2023/03/30 11:01:56;;;;;;;10.82;2.22;;;;;;;;;;5005244;28;20371;-76
2023/03/30 11:04:37;;;;;;;13.25;2.50;;;;;;;;;;4999199;28;20034;-76
2023/03/30 11:07:06;;;;;;;10.98;2.22;;;;;;;;;;4998185;28;20093;-75
2023/03/30 11:09:38;;;;;;;14.02;2.35;;;;;;;;;;5020283;28;20037;-76
2023/03/30 11:12:09;;;;;;;9.13;1.90;;;;;;;;;;5018307;28;20053;-77
2023/03/30 11:15:03;;;;;;;13.63;2.28;;;;;;;;;;5008527;28;20390;-76
2023/03/30 11:17:33;;;;;;;;;;;;;;;;;;5019602;28;20038;-76
2023/03/30 11:20:26;;;;;;;11.00;2.03;;;;;;;;;;5013211;28;20007;-78
2023/03/30 11:23:09;;;;;;;7.28;1.98;;;;;;;;;;5003359;28;20037;-76
2023/03/30 11:25:53;;;;;;;12.45;2.17;;;;;;;;;;4999128;28;21167;-76
2023/03/30 11:28:52;;;;;;;14.93;2.60;;;;;;;;;;5019048;28;20026;-76
2023/03/30 11:31:48;;;;;;;10.38;2.30;;;;;;;;;;4997769;28;20022;-76
2023/03/30 11:34:53;;;;;;;8.80;1.85;;;;;;;;;;5016133;28;20508;-76
2023/03/30 11:37:37;;;;;;;10.55;1.80;;;;;;;;;;5017424;28;20088;-76
2023/03/30 11:40:14;;;;;;;8.27;1.83;;;;;;;;;;5023461;28;20021;-77
2023/03/30 11:42:39;;;;;;;10.35;2.10;;;;;;;;;;4997863;28;20025;-76
2023/03/30 11:45:30;;;;;;;12.77;1.90;;;;;;;;;;5009214;28;20024;-76
2023/03/30 11:48:19;;;;;;;6.25;2.10;;;;;;;;;;5014621;28;20076;-79
2023/03/30 11:50:47;;;;;;;9.02;1.80;;;;;;;;;;5020112;28;20030;-75
2023/03/30 11:53:31;;;;;;;10.50;1.80;;;;;;;;;;5001800;28;20034;-76
2023/03/30 11:56:06;;;;;;;8.02;1.83;;;;;;;;;;5020371;28;20378;-75
2023/03/30 11:59:05;;;;;;;9.82;2.08;;;;;;;;;;4999448;28;20030;-76
2023/03/30 12:01:38;;;;;;;10.43;2.22;;;;;;;;;;4995267;28;20121;-75
2023/03/30 12:04:11;;;;;;;9.85;2.10;;;;;;;;;;5015131;28;20367;-75
2023/03/30 12:06:50;;;;;;;8.27;1.92;;;;;;;;;;5000953;28;20485;-75
2023/03/30 12:09:33;;;;;;;8.25;1.90;;;;;;;;;;4996998;28;20045;-75
2023/03/30 12:12:20;;;;;;;8.13;1.93;;;;;;;;;;4999806;28;20029;-75
2023/03/30 12:15:07;;;;;;;6.90;1.90;;;;;;;;;;5013421;28;20049;-75
2023/03/30 12:17:53;;;;;;;9.05;2.03;;;;;;;;;;4996523;28;20109;-75
2023/03/30 12:20:35;;;;;;;10.32;2.25;;;;;;;;;;4992147;28;20501;-75
2023/03/30 12:23:31;;;;;;;9.25;1.90;;;;;;;;;;5011570;28;20030;-76
2023/03/30 12:26:21;;;;;;;9.02;2.13;;;;;;;;;;5018361;28;20378;-76
2023/03/30 12:28:54;;;;;;;12.27;2.20;;;;;;;;;;4993529;28;20022;-75
2023/03/30 12:31:21;;;;;;;;;;;;;;;;;;5016284;28;20022;-76
2023/03/30 12:33:51;;;;;;;9.15;1.92;;;;;;;;;;5001101;28;19921;-75
2023/03/30 12:36:24;;;;;;;8.07;1.98;;;;;;;;;;5026691;28;20026;-75
2023/03/30 12:38:56;;;;;;;9.30;2.00;;;;;;;;;;4998270;28;20030;-76
2023/03/30 12:41:23;;;;;;;9.27;2.22;;;;;;;;;;4998573;28;20034;-75
2023/03/30 12:44:16;;;;;;;11.00;2.33;;;;;;;;;;5014975;28;20026;-76
2023/03/30 12:47:08;;;;;;;14.70;1.90;;;;;;;;;;4997818;28;20490;-76
2023/03/30 12:50:02;;;;;;;8.95;2.03;;;;;;;;;;5019531;28;20493;-76
2023/03/30 12:52:46;;;;;;;8.52;1.50;;;;;;;;;;5020058;28;20030;-76
2023/03/30 12:55:35;;;;;;;11.63;1.95;;;;;;;;;;5019268;28;20021;-76
2023/03/30 12:58:25;;;;;;;11.57;1.85;;;;;;;;;;5012561;28;20331;-76
2023/03/30 13:01:35;;;;;;;8.05;1.67;;;;;;;;;;5015944;28;20014;-76
2023/03/30 13:04:07;;;;;;;10.23;1.45;;;;;;;;;;4982227;28;20030;-76
2023/03/30 13:06:35;;;;;;;8.95;1.90;;;;;;;;;;5024733;28;20030;-76
2023/03/30 13:09:22;;;;;;;5.97;1.50;;;;;;;;;;5000914;28;20387;-76
2023/03/30 13:11:48;;;;;;;8.75;1.77;;;;;;;;;;5004199;28;20037;-76
2023/03/30 13:14:24;;;;;;;11.55;2.10;;;;;;;;;;5001183;28;20096;-76
2023/03/30 13:16:49;;;;;;;9.90;1.75;;;;;;;;;;5000319;28;20375;-76
2023/03/30 13:19:40;;;;;;;9.32;1.88;;;;;;;;;;5018943;28;20080;-78
2023/03/30 13:22:11;;;;;;;9.05;1.88;;;;;;;;;;5018649;28;20414;-76
2023/03/30 13:25:00;;;;;;;13.95;2.00;;;;;;;;;;5017565;28;20057;-76
2023/03/30 13:27:30;;;;;;;7.38;1.50;;;;;;;;;;4995321;28;20030;-76
2023/03/30 13:30:15;;;;;;;7.97;1.58;;;;;;;;;;5018333;28;20030;-75
2023/03/30 13:33:11;;;;;;;11.70;1.83;;;;;;;;;;5011421;28;20062;-76
2023/03/30 13:36:11;;;;;;;12.05;1.85;;;;;;;;;;5012603;28;20050;-75
2023/03/30 13:38:54;;;;;;;12.48;2.20;;;;;;;;;;4993492;28;20025;-75
2023/03/30 13:41:58;;;;;;;9.93;1.88;;;;;;;;;;5021479;28;20028;-76
2023/03/30 13:44:40;;;;;;;8.65;1.52;;;;;;;;;;4999194;28;20038;-76
2023/03/30 13:47:21;;;;;;;6.35;1.50;;;;;;;;;;5020276;28;20038;-75
2023/03/30 13:49:58;;;;;;;8.80;2.10;;;;;;;;;;5012798;28;20502;-76
2023/03/30 13:52:36;;;;;;;7.78;1.42;;;;;;;;;;4998608;28;20040;-75
2023/03/30 13:55:03;;;;;;;6.93;1.58;;;;;;;;;;5017519;28;20121;-75
2023/03/30 13:57:40;;;;;;;10.30;1.80;;;;;;;;;;5017369;28;20097;-75
2023/03/30 14:00:38;;;;;;;6.00;1.75;;;;;;;;;;5018346;28;20084;-75
2023/03/30 14:03:30;;;;;;;11.60;2.10;;;;;;;;;;5011284;28;20045;-75
2023/03/30 14:06:21;;;;;;;8.63;2.08;;;;;;;;;;5011025;28;20024;-76
2023/03/30 14:09:17;;;;;;;9.20;1.58;;;;;;;;;;5008670;28;20033;-75
2023/03/30 14:11:50;;;;;;;7.38;2.10;;;;;;;;;;4999585;28;20489;-75
2023/03/30 14:14:22;;;;;;;6.85;1.65;;;;;;;;;;4991767;28;20030;-75
2023/03/30 14:16:49;;;;;;;13.05;1.95;;;;;;;;;;5016020;28;20033;-77
2023/03/30 14:19:21;;;;;;;11.45;2.10;;;;;;;;;;4989598;28;20030;-76
2023/03/30 14:21:46;;;;;;;8.18;1.90;;;;;;;;;;4997348;28;20029;-78
2023/03/30 14:24:26;;;;;;;10.80;2.20;;;;;;;;;;5000181;28;20474;-77
2023/03/30 14:27:01;;;;;;;12.02;2.65;;;;;;;;;;5005740;28;20501;-76
2023/03/30 14:29:29;;;;;;;9.27;1.58;;;;;;;;;;4991923;28;20022;-75
2023/03/30 14:31:54;;;;;;;8.73;1.48;;;;;;;;;;5018290;28;20033;-76
2023/03/30 14:34:26;;;;;;;8.48;2.17;;;;;;;;;;4994632;28;20037;-77
2023/03/30 14:37:05;;;;;;;9.00;1.38;;;;;;;;;;5001481;28;20022;-76
2023/03/30 14:39:35;;;;;;;10.25;1.92;;;;;;;;;;4995904;28;20026;-76
2023/03/30 14:42:13;;;;;;;9.23;1.67;;;;;;;;;;5006378;28;20030;-76
2023/03/30 14:44:39;;;;;;;7.40;1.83;;;;;;;;;;5002236;28;20029;-76
2023/03/30 14:47:05;;;;;;;9.15;1.95;;;;;;;;;;4999969;28;20482;-76
2023/03/30 14:49:31;;;;;;;6.97;1.40;;;;;;;;;;5015827;28;20033;-76
2023/03/30 14:52:08;;;;;;;8.93;1.75;;;;;;;;;;5005012;28;20032;-76
2023/03/30 14:54:36;;;;;;;8.65;1.75;;;;;;;;;;5013883;28;20055;-76
2023/03/30 14:57:04;;;;;;;7.03;1.27;;;;;;;;;;5025354;28;20022;-77
2023/03/30 14:59:34;;;;;;;8.07;1.52;;;;;;;;;;5021605;28;20029;-76
2023/03/30 15:02:01;;;;;;;5.82;1.40;;;;;;;;;;4996712;28;20022;-77
2023/03/30 15:04:32;;;;;;;8.18;1.50;;;;;;;;;;5002769;28;20053;-76
2023/03/30 15:06:59;;;;;;;6.82;1.63;;;;;;;;;;5022509;28;20024;-76
2023/03/30 15:09:25;;;;;;;7.43;1.55;;;;;;;;;;5006578;28;20029;-76
2023/03/30 15:11:57;;;;;;;7.88;1.73;;;;;;;;;;5022990;28;20080;-76
2023/03/30 15:14:25;;;;;;;9.98;1.80;;;;;;;;;;5018799;28;20133;-77